Lokaal brand risico:
CBI


Regionaal brand risico: Meer informatie


Weerstation
Sluispark-LeuvenLeuven-Sluispark



Nabijgelegen vliegvelden - METAR rapporten

   
EBBR - Wilsele bij Leuven
Gewijzigd: 19-04-2019 12:20
Helder    Wind: NO 11.1 km/h
Helder
Wind: Wind: NO 11.1 km/h
Temperatuur: 20°C
Dauwpunt: 7°C
Vochtigheid: 43%
Barometer: 1027 hPa
Zicht: meer dan 10 km
Bewolking: Helder
EBBR 191020Z 05006KT CAVOK 20/07 Q1027 NOSIG
EBAW - Antwerp
Gewijzigd: 19-04-2019 12:20
Helder    Wind: ONO 14.8 km/h
Helder
Wind: Wind: ONO 14.8 km/h
Temperatuur: 21°C
Dauwpunt: 6°C
Vochtigheid: 38%
Barometer: 1027 hPa
Zicht: meer dan 10 km
Bewolking: Helder
EBAW 191020Z 07008KT CAVOK 21/06 Q1027 NOSIG
EBLG - Li├Ęge
Gewijzigd: 19-04-2019 12:20
Helder    Wind: NO 13 km/h
Helder
Wind: Wind: NO 13 km/h
Temperatuur: 21°C
Dauwpunt: 7°C
Vochtigheid: 40%
Barometer: 1026 hPa
Zicht: meer dan 10 km
Bewolking: Helder
EBLG 191020Z 05007KT CAVOK 21/07 Q1026 NOSIG
EBCV - Mons/Bergen
Gewijzigd: 19-04-2019 12:25
Helder    Wind: ONO 13 km/h
Helder
Wind: Wind: ONO 13 km/h
Temperatuur: 20°C
Dauwpunt: 9°C
Vochtigheid: 49%
Barometer: 1027 hPa
Bewolking: Helder
Zicht: meer dan 10 km
Bewolking: Helder
EBCV 191025Z AUTO 06007KT 9999 NCD 20/09 Q1027 BLU
EHBK - Maastricht
Gewijzigd: 19-04-2019 12:25
Helder    Wind: Oosten 24.1 km/h
Helder
Wind: Wind: Oosten 24.1 km/h
Temperatuur: 20°C
Dauwpunt: 4°C
Vochtigheid: 35%
Barometer: 1027 hPa
Bewolking: Helder
Zicht: meer dan 10 km
Bewolking: Helder
EHBK 191025Z AUTO 09013KT 060V120 9999 NCD 20/04 Q1027 NOSIG
ELLX - Luxemburg
Gewijzigd: 19-04-2019 12:20
Helder    Wind: varieert 13 km/h
Helder
Wind: Wind: varieert 13 km/h
Temperatuur: 18°C
Dauwpunt: 5°C
Vochtigheid: 43%
Barometer: 1027 hPa
Zicht: meer dan 10 km
Bewolking: Helder
ELLX 191020Z VRB07KT CAVOK 18/05 Q1027 NOSIG
EBOS - Oostende
Gewijzigd: 19-04-2019 12:20
Helder    Wind: Noorden 16.7 km/h
Helder
Wind: Wind: Noorden 16.7 km/h
Temperatuur: 20°C
Dauwpunt: 7°C
Vochtigheid: 43%
Barometer: 1027 hPa
Zicht: meer dan 10 km
Bewolking: Helder
EBOS 191020Z 01009KT CAVOK 20/07 Q1027 NOSIG
  

Script ontwikkeld door  Saratoga-weather.org Aangepast voor de template door  Weerstation Leuven

U vindt ons ook hier:

UK Metoffice

WeatherCloud

European Weather Network

Weather Underground

Benelux Weather Network

AWEKAS

WeatherlinkIP

Het Weer Aktueel

Apparatuur in gebruik:

Weer-station
Davis VP2 weatherstation

Weer-programma
Meteobridge

Weer-computer
D-Link DIR-505

Webleverancier
Robohost

Davis VP2 weatherstation

Meteobridge

D-Link DIR-505

Robohost